This is the latest recevied weather packets stored in our database for station/object G7NPW-1. If no packets are shown the sender has not sent any weather packets the latest 1 day(s).
| Time | Temp. | Humidity | Pressure | Rain* | Wind** | Luminosity | Snow |
|---|---|---|---|---|---|---|---|
| 1778098504 | 7.22° C | 81% | 1014.9 hPa | 0 mm | - | - | - |
| 1778095808 | 7.78° C | 81% | 1014.9 hPa | 0 mm | - | - | - |
| 1778093104 | 8.89° C | 75% | 1014.9 hPa | 0 mm | - | - | - |
| 1778085607 | 10° C | 66% | 1013.9 hPa | 0 mm | - | - | - |
| 1778085008 | 10° C | 66% | 1013.9 hPa | 0 mm | - | - | - |
| 1778084704 | 10° C | 66% | 1013.9 hPa | 0 mm | - | - | - |
| 1778082008 | 11.11° C | 57% | 1013.9 hPa | 0 mm | - | - | - |
| 1778080207 | 11.11° C | 57% | 1013.9 hPa | 0 mm | - | - | - |
| 1778077207 | 11.11° C | 57% | 1014.9 hPa | 0 mm | - | - | - |
| 1778075407 | 12.78° C | 50% | 1013.9 hPa | 0 mm | - | - | - |
| 1778060704 | 7.78° C | 70% | 1014.9 hPa | 0 mm | - | - | - |
| 1778059807 | 7.78° C | 70% | 1014.9 hPa | 0 mm | - | - | - |
| 1778059505 | 7.78° C | 70% | 1014.9 hPa | 0 mm | - | - | - |
| 1778059208 | 7.78° C | 70% | 1014.9 hPa | 0 mm | - | - | - |
| 1778055904 | 8.89° C | 70% | 1014.9 hPa | 0 mm | - | - | - |
| 1778055008 | 8.89° C | 70% | 1014.9 hPa | 0 mm | - | - | - |
| 1778054704 | 8.89° C | 70% | 1014.9 hPa | 0 mm | - | - | - |
| 1778053504 | 7.22° C | 75% | 1014.9 hPa | 0 mm | - | - | - |
| 1778050505 | 8.89° C | 70% | 1014.9 hPa | 0 mm | - | - | - |
| 1778049905 | 8.89° C | 70% | 1014.9 hPa | 0 mm | - | - | - |
* Rain latest hour (hover to see other rain measurements)
** Current wind speed in m/s (hover to see current wind gust speed)